El Centro Naf Airport
KNJK : now visible

Airfield :











YOU CAN JOIN US ON...

 
LOGIN :

Register | Disclaimer

   EN    FR    IT 

 









Legend :    VFR   Marginal VFR   IFR   Intensive IFR   Very Intensive IFR
Visi :
Ceiling :
>= 8 km
>= 3000ft
5 to 8 km
1000 to 3000 ft
1500m to 5 km
500 to 1000 ft
800 to 1500m
200 to 500 ft
< 800m
< 200 ft
Symbols :   Thunderstorms  Fog  Heavy snow  Heavy precipitations  Wind > 20 kt







- Airport Elevation : -42 ft


KNJK - El Centro Naf

CURRENT METAR :
  • 210656Z AUTO 28008KT 10SM CLR 31/04 A2973 RMK AO2 SLP083 T03060044 $

EXPIRED METARs :
  • 210556Z AUTO 27008KT 10SM CLR 32/04 A2973 RMK AO2 SLP084 T03220044 10417 20322 51020 $
  • 210456Z AUTO 27008KT 10SM CLR 33/05 A2973 RMK AO2 SLP082 T03280050 $

TAF TAF KNJK
Valid from the 20 at 15:00 until the 21 at 15:00 UTC


2015/2115 22010KT 9999 FEW250 QNH2961INS
TEMPO 2020/2102 18012KT
FM210900 VRB06KT 9999 FEW250 QNH2973INS LAST NO AMDS AFT 2022 NEXT 2207 T43/2022Z T26/2112Z FS30134
KZLA FIR / North America



MET'MAP, your aeronautical weather chart ! - Copyright ORBIFLY December 2007 - Disclaimer

ORBIFLY MET'MAP TEAM :

Programming & Development : Alexandra Zaïnal
Concept & Development : Baudouin d'Aumeries
Co-Development & Prog : Marc-Olivier Méhu
Technical & hardware support : Manuel Goepfert

Contact : metmap@orbifly.com




SOURCES & CREDITS :

   NOAA       Earth
Advisory